Time;durP1;ratioP1;P1;durP2;ratioP2;P2;SDS_P1;SDS_P2;PMS_P1;PMS_P2;Temp;Humidity;BMP_temperature;BMP_pressure;BME280_temperature;BME280_humidity;BME280_pressure;Samples;Min_cycle;Max_cycle;Signal;HPM_P1;HPM_P2
2022/11/02 00:01:25;;;;;;;19.40;18.00;;;;;;;10.95;100.00;101271.81;5053320;28;20462;-46
2022/11/02 00:03:53;;;;;;;19.73;18.40;;;;;;;10.98;100.00;101276.78;5053837;28;20439;-48
2022/11/02 00:06:21;;;;;;;19.73;18.27;;;;;;;11.05;100.00;101283.03;5053460;28;20428;-46
2022/11/02 00:08:49;;;;;;;18.70;17.53;;;;;;;11.09;100.00;101277.13;5053094;28;20517;-46
2022/11/02 00:11:17;;;;;;;19.47;18.17;;;;;;;11.15;100.00;101267.53;5053196;28;20916;-51
2022/11/02 00:13:45;;;;;;;19.67;18.47;;;;;;;11.20;100.00;101273.13;5053251;28;20995;-45
2022/11/02 00:16:14;;;;;;;20.27;18.67;;;;;;;11.23;100.00;101270.09;5052880;28;20436;-49
2022/11/02 00:18:44;;;;;;;19.40;17.93;;;;;;;11.25;100.00;101265.41;5051188;28;20513;-48
2022/11/02 00:21:15;;;;;;;19.23;17.53;;;;;;;11.28;100.00;101259.69;5049328;28;20428;-51
2022/11/02 00:23:44;;;;;;;19.07;17.50;;;;;;;11.31;100.00;101259.31;5059788;28;20427;-49
2022/11/02 00:26:13;;;;;;;19.70;17.80;;;;;;;11.32;100.00;101250.28;5053304;28;20431;-46
2022/11/02 00:28:41;;;;;;;19.07;17.63;;;;;;;11.34;100.00;101250.94;5052714;28;20822;-46
2022/11/02 00:31:08;;;;;;;19.03;17.83;;;;;;;11.34;100.00;101250.94;5052866;28;20771;-49
2022/11/02 00:33:36;;;;;;;19.00;17.10;;;;;;;11.35;100.00;101257.09;5053010;28;20526;-48
2022/11/02 00:36:04;;;;;;;17.70;16.80;;;;;;;11.35;100.00;101249.91;5052996;28;20508;-47
2022/11/02 00:38:31;;;;;;;17.30;16.30;;;;;;;11.33;100.00;101246.59;5052301;28;20464;-48
2022/11/02 00:40:59;;;;;;;16.73;15.70;;;;;;;11.32;100.00;101241.47;5052470;28;20488;-48
2022/11/02 00:43:28;;;;;;;18.53;16.90;;;;;;;11.30;100.00;101233.63;5052790;28;20948;-45
2022/11/02 00:45:56;;;;;;;17.27;16.07;;;;;;;11.28;100.00;101235.66;5052591;28;20941;-47
2022/11/02 00:48:23;;;;;;;16.67;15.30;;;;;;;11.27;100.00;101231.34;5052230;28;20479;-48
2022/11/02 00:50:51;;;;;;;16.33;15.40;;;;;;;11.24;100.00;101231.72;5052366;28;20434;-48
2022/11/02 00:53:19;;;;;;;16.27;15.07;;;;;;;11.20;100.00;101240.31;5052602;28;21144;-47
2022/11/02 00:55:46;;;;;;;16.60;15.43;;;;;;;11.17;100.00;101230.00;5052316;28;20983;-50
2022/11/02 00:58:15;;;;;;;16.00;14.83;;;;;;;11.16;100.00;101233.66;5052157;28;20536;-47
2022/11/02 01:00:44;;;;;;;17.60;15.80;;;;;;;11.14;100.00;101231.19;5052417;28;21002;-45
2022/11/02 01:03:12;;;;;;;17.47;15.90;;;;;;;11.12;100.00;101230.53;5052814;28;20841;-50
2022/11/02 01:05:39;;;;;;;16.50;15.00;;;;;;;11.15;100.00;101229.34;5052436;28;20423;-50
2022/11/02 01:08:07;;;;;;;16.27;15.17;;;;;;;11.16;100.00;101226.50;5051486;28;20509;-51
2022/11/02 01:10:35;;;;;;;17.27;15.97;;;;;;;11.18;100.00;101223.63;5052189;28;20929;-45
2022/11/02 01:13:02;;;;;;;16.83;15.33;;;;;;;11.22;100.00;101214.22;5051869;28;20984;-50
2022/11/02 01:15:30;;;;;;;17.43;15.73;;;;;;;11.24;100.00;101212.19;5051920;28;20937;-48
2022/11/02 01:17:59;;;;;;;16.40;15.20;;;;;;;11.25;100.00;101209.34;5052004;28;20523;-44
2022/11/02 01:20:26;;;;;;;21.33;15.60;;;;;;;11.27;100.00;101209.97;5054629;28;20434;-46
2022/11/02 01:22:54;;;;;;;16.27;15.13;;;;;;;11.31;100.00;101208.59;5063307;28;20475;-50
2022/11/02 01:25:22;;;;;;;16.60;15.70;;;;;;;11.34;100.00;101202.88;5072037;28;20426;-46
2022/11/02 01:27:49;;;;;;;15.73;14.97;;;;;;;11.37;100.00;101207.00;5070446;28;20470;-45
2022/11/02 01:30:17;;;;;;;22.93;15.53;;;;;;;11.38;100.00;101203.31;5071938;28;20480;-45
2022/11/02 01:32:44;;;;;;;16.57;15.47;;;;;;;11.43;100.00;101208.91;5071882;28;20443;-49
2022/11/02 01:35:13;;;;;;;16.80;15.50;;;;;;;11.44;100.00;101191.88;5071793;28;20981;-46
2022/11/02 01:37:41;;;;;;;15.80;14.80;;;;;;;11.48;100.00;101201.13;5071173;28;20466;-48
2022/11/02 01:40:09;;;;;;;17.57;16.20;;;;;;;11.50;100.00;101202.59;5071930;28;20492;-50
2022/11/02 01:42:37;;;;;;;16.03;14.90;;;;;;;11.51;100.00;101190.91;5071568;28;20994;-48
2022/11/02 01:45:06;;;;;;;16.17;15.00;;;;;;;11.55;100.00;101192.19;5072015;28;20855;-50
2022/11/02 01:47:37;;;;;;;16.40;15.30;;;;;;;11.56;100.00;101196.50;5071187;28;20458;-46
2022/11/02 01:50:10;;;;;;;15.63;14.50;;;;;;;11.58;100.00;101186.47;5071701;28;20814;-47
2022/11/02 01:52:40;;;;;;;17.40;15.57;;;;;;;11.59;100.00;101197.94;5071514;28;20916;-47
2022/11/02 01:55:12;;;;;;;14.83;14.03;;;;;;;11.60;100.00;101189.75;5071708;28;20551;-49
2022/11/02 01:57:43;;;;;;;14.90;14.00;;;;;;;11.59;100.00;101188.09;5070061;28;20875;-47
2022/11/02 02:00:14;;;;;;;14.00;13.30;;;;;;;11.62;100.00;101181.53;5071813;28;20426;-47
2022/11/02 02:02:48;;;;;;;17.43;15.77;;;;;;;11.62;100.00;101187.72;5071667;28;20839;-51
2022/11/02 02:05:17;;;;;;;16.80;15.40;;;;;;;11.63;100.00;101176.03;5073405;28;20771;-46
2022/11/02 02:07:47;;;;;;;15.70;14.40;;;;;;;11.62;100.00;101171.69;5074369;28;20466;-48
2022/11/02 02:10:15;;;;;;;15.27;14.10;;;;;;;11.63;100.00;101189.38;5075701;28;20559;-45
2022/11/02 02:12:43;;;;;;;15.43;14.20;;;;;;;11.64;100.00;101187.53;5075320;28;20838;-50
2022/11/02 02:15:12;;;;;;;15.20;13.73;;;;;;;11.65;100.00;101176.63;5075713;28;20474;-50
2022/11/02 02:17:46;;;;;;;15.13;14.07;;;;;;;11.67;100.00;101160.44;5074156;28;20461;-47
2022/11/02 02:20:26;;;;;;;14.60;13.80;;;;;;;11.68;100.00;101166.59;5070774;28;20430;-49
2022/11/02 02:23:30;;;;;;;14.87;13.80;;;;;;;11.66;100.00;101162.28;5067097;28;20484;-49
2022/11/02 02:26:48;;;;;;;16.37;14.97;;;;;;;11.68;100.00;101148.72;5075550;28;20503;-48
2022/11/02 02:29:21;;;;;;;15.17;13.73;;;;;;;11.70;100.00;101156.56;5057752;28;20515;-45
2022/11/02 02:31:55;;;;;;;20.03;14.67;;;;;;;11.70;100.00;101153.91;5075459;28;20918;-51
2022/11/02 02:34:26;;;;;;;14.53;13.60;;;;;;;11.72;100.00;101141.16;5075088;28;20979;-49
2022/11/02 02:37:01;;;;;;;13.70;12.80;;;;;;;11.74;100.00;101144.50;5074992;28;20446;-48
2022/11/02 02:39:36;;;;;;;13.50;12.57;;;;;;;11.74;100.00;101142.63;5073145;28;20446;-46
2022/11/02 02:42:11;;;;;;;14.73;13.53;;;;;;;11.74;100.00;101144.50;5074562;28;20426;-46
2022/11/02 02:44:45;;;;;;;13.43;12.37;;;;;;;11.75;100.00;101156.81;5074883;28;20426;-47
2022/11/02 02:47:17;;;;;;;13.97;13.00;;;;;;;11.74;100.00;101139.16;5074899;28;20507;-49
2022/11/02 02:49:50;;;;;;;14.27;13.37;;;;;;;11.78;100.00;101151.91;5054517;28;20439;-46
2022/11/02 02:52:20;;;;;;;16.07;14.23;;;;;;;11.78;100.00;101149.25;5054576;28;20422;-50
2022/11/02 02:54:50;;;;;;;14.27;13.37;;;;;;;11.78;100.00;101143.91;5055022;28;20459;-48
2022/11/02 02:57:21;;;;;;;14.20;13.20;;;;;;;11.77;100.00;101139.56;5053434;28;21030;-45
2022/11/02 02:59:50;;;;;;;14.77;13.60;;;;;;;11.78;100.00;101141.22;5074817;28;20946;-47
2022/11/02 03:02:22;;;;;;;13.87;12.97;;;;;;;11.79;100.00;101132.19;5074426;28;20932;-45
2022/11/02 03:04:50;;;;;;;15.90;14.40;;;;;;;11.77;100.00;101134.22;5074574;28;20423;-46
2022/11/02 03:07:21;;;;;;;14.70;13.90;;;;;;;11.80;100.00;101127.69;5074718;28;20450;-48
2022/11/02 03:09:55;;;;;;;15.03;13.47;;;;;;;11.81;100.00;101134.66;5075106;28;20445;-48
2022/11/02 03:12:34;;;;;;;13.77;12.70;;;;;;;11.81;100.00;101134.66;5074410;28;20480;-50
2022/11/02 03:15:10;;;;;;;14.27;13.40;;;;;;;11.81;100.00;101142.69;5074424;28;20527;-50
2022/11/02 03:17:46;;;;;;;13.87;12.90;;;;;;;11.78;100.00;101132.38;5069176;28;20449;-45
2022/11/02 03:20:25;;;;;;;14.60;13.30;;;;;;;11.77;100.00;101130.75;5049071;28;20428;-46
2022/11/02 03:23:02;;;;;;;13.90;12.90;;;;;;;11.79;100.00;101136.72;5042452;28;20432;-46
2022/11/02 03:25:39;;;;;;;14.10;13.03;;;;;;;11.79;100.00;101134.88;5034552;28;20463;-48
2022/11/02 03:28:12;;;;;;;13.30;12.50;;;;;;;11.81;100.00;101129.31;5033955;28;20471;-51
2022/11/02 03:30:47;;;;;;;14.70;13.50;;;;;;;11.81;100.00;101134.66;5034365;28;20435;-53
2022/11/02 03:33:20;;;;;;;14.33;13.50;;;;;;;11.81;100.00;101126.66;5034288;28;20439;-47
2022/11/02 03:35:52;;;;;;;13.80;13.00;;;;;;;11.78;100.00;101141.22;5034352;28;20456;-47
2022/11/02 03:38:25;;;;;;;13.70;12.80;;;;;;;11.79;100.00;101142.06;5033499;28;20491;-52
2022/11/02 03:40:55;;;;;;;14.73;13.60;;;;;;;11.79;100.00;101136.72;5034305;28;20416;-50
2022/11/02 03:43:24;;;;;;;14.00;13.20;;;;;;;11.77;100.00;101134.22;5034271;28;20535;-51
2022/11/02 03:45:55;;;;;;;16.33;15.07;;;;;;;11.78;100.00;101140.38;5034090;28;20432;-47
2022/11/02 03:48:26;;;;;;;17.00;13.90;;;;;;;11.80;100.00;101122.34;5033529;28;20475;-47
2022/11/02 03:50:57;;;;;;;15.33;14.20;;;;;;;11.82;100.00;101136.31;5033511;28;20910;-50
2022/11/02 03:53:34;;;;;;;15.10;13.97;;;;;;;11.81;100.00;101137.34;5033953;28;20436;-51
2022/11/02 03:56:07;;;;;;;15.60;14.50;;;;;;;11.82;100.00;101152.34;5033842;28;20471;-48
2022/11/02 03:58:35;;;;;;;15.50;14.50;;;;;;;11.81;100.00;101151.53;5033224;28;20508;-49
2022/11/02 04:01:07;;;;;;;15.77;14.53;;;;;;;11.78;100.00;101148.41;5033628;28;20439;-50
2022/11/02 04:03:39;;;;;;;15.87;14.53;;;;;;;11.74;100.00;101134.59;5033811;28;20468;-50
2022/11/02 04:06:07;;;;;;;16.13;15.10;;;;;;;11.71;100.00;101132.31;5033771;28;20428;-48
2022/11/02 04:08:37;;;;;;;16.80;15.47;;;;;;;11.67;100.00;101133.72;5033085;28;21000;-49
2022/11/02 04:16:38;;;;;;;19.67;17.60;;;;;;;11.56;100.00;101135.06;5033238;28;20498;-48
2022/11/02 04:27:21;;;;;;;18.43;16.90;;;;;;;11.53;100.00;101143.47;5012381;28;20973;-46
2022/11/02 04:29:48;;;;;;;20.00;18.20;;;;;;;11.52;100.00;101130.31;5019331;28;20440;-48
2022/11/02 04:33:31;;;;;;;19.50;18.20;;;;;;;11.49;100.00;101133.38;5025610;28;20444;-52
2022/11/02 04:35:07;;;;;;;20.13;18.77;;;;;;;11.50;100.00;101121.66;5032115;28;20476;-47
2022/11/02 04:40:23;;;;;;;21.07;19.43;;;;;;;11.43;100.00;101110.94;5032090;28;20946;-48
2022/11/02 04:42:51;;;;;;;20.37;19.10;;;;;;;11.43;100.00;101110.94;5032604;28;20849;-50
2022/11/02 04:45:18;;;;;;;20.70;19.30;;;;;;;11.40;100.00;101110.47;5033105;28;20841;-51
2022/11/02 04:47:47;;;;;;;21.70;20.30;;;;;;;11.38;100.00;101113.34;5032131;28;20514;-47
2022/11/02 04:50:15;;;;;;;23.03;21.30;;;;;;;11.40;100.00;101103.31;5033018;28;20530;-48
2022/11/02 04:52:43;;;;;;;21.67;20.43;;;;;;;11.34;100.00;101092.56;5032522;28;20440;-45
2022/11/02 04:55:10;;;;;;;22.20;20.60;;;;;;;11.30;100.00;101097.47;5032527;28;20475;-46
2022/11/02 04:57:38;;;;;;;21.13;20.13;;;;;;;11.22;100.00;101092.25;5032249;28;22823;-49
2022/11/02 05:00:07;;;;;;;21.10;19.67;;;;;;;11.16;100.00;101100.22;5032394;28;20437;-49
2022/11/02 05:02:35;;;;;;;20.33;19.23;;;;;;;11.07;100.00;101088.84;5032537;28;20436;-45
2022/11/02 05:05:05;;;;;;;22.70;21.10;;;;;;;10.97;100.00;101102.50;5032815;28;20530;-47
2022/11/02 05:07:33;;;;;;;21.03;20.03;;;;;;;10.88;100.00;101100.97;5032090;28;20494;-45
2022/11/02 05:10:00;;;;;;;23.27;21.53;;;;;;;10.80;100.00;101103.75;5032131;28;20432;-51
2022/11/02 05:12:28;;;;;;;23.67;22.47;;;;;;;10.74;100.00;101109.03;5032459;28;20432;-46
2022/11/02 05:14:56;;;;;;;23.23;22.13;;;;;;;10.67;100.00;101100.09;5032146;28;20482;-47
2022/11/02 05:17:23;;;;;;;23.47;21.97;;;;;;;10.59;100.00;101103.72;5031776;28;20826;-51
2022/11/02 05:19:51;;;;;;;24.40;22.33;;;;;;;10.53;100.00;101107.16;5032102;28;20935;-46
2022/11/02 05:22:20;;;;;;;24.03;22.70;;;;;;;10.49;100.00;101101.34;5031811;28;20993;-49
2022/11/02 05:24:47;;;;;;;26.23;24.77;;;;;;;10.45;100.00;101100.06;5032033;28;20937;-45
2022/11/02 05:27:15;;;;;;;27.70;26.10;;;;;;;10.43;100.00;101091.44;5032229;28;20510;-45
2022/11/02 05:29:43;;;;;;;29.17;26.57;;;;;;;10.43;100.00;101098.59;5051595;28;20471;-47
2022/11/02 05:32:10;;;;;;;29.30;27.50;;;;;;;10.39;100.00;101095.47;5051779;28;20469;-51
2022/11/02 05:34:38;;;;;;;30.00;28.10;;;;;;;10.38;100.00;101101.00;5051786;28;20435;-47
2022/11/02 05:37:05;;;;;;;29.90;28.10;;;;;;;10.38;100.00;101101.00;5051567;28;20451;-46
2022/11/02 05:39:36;;;;;;;30.97;28.87;;;;;;;10.35;100.00;101091.56;5032184;28;20510;-47
2022/11/02 05:42:03;;;;;;;31.33;29.50;;;;;;;10.35;100.00;101093.38;5031914;28;20493;-45
2022/11/02 05:44:31;;;;;;;32.37;29.90;;;;;;;10.33;100.00;101101.59;5031795;28;20483;-47
2022/11/02 05:46:59;;;;;;;30.77;28.83;;;;;;;10.29;100.00;101094.13;5031515;28;20459;-49
2022/11/02 05:49:26;;;;;;;31.53;29.80;;;;;;;10.28;100.00;101097.78;5048825;28;20475;-47
2022/11/02 05:51:54;;;;;;;33.93;31.60;;;;;;;10.26;100.00;101103.31;5051705;28;20440;-48
2022/11/02 05:54:21;;;;;;;32.80;31.00;;;;;;;10.21;100.00;101088.91;5051623;28;20520;-46
2022/11/02 05:56:50;;;;;;;32.43;30.53;;;;;;;10.17;100.00;101093.78;5051512;28;20474;-50
2022/11/02 05:59:18;;;;;;;32.07;30.37;;;;;;;10.15;100.00;101085.16;5034745;28;20464;-48
2022/11/02 06:01:45;;;;;;;33.63;31.43;;;;;;;10.14;100.00;101091.47;5031677;28;20432;-47
2022/11/02 06:04:13;;;;;;;33.50;31.83;;;;;;;10.11;100.00;101091.81;5031609;28;20467;-45
2022/11/02 06:06:41;;;;;;;34.23;31.80;;;;;;;10.10;100.00;101089.31;5031658;28;20450;-46
2022/11/02 06:09:09;;;;;;;35.20;33.13;;;;;;;10.09;100.00;101087.69;5046377;28;20521;-45
2022/11/02 06:11:37;;;;;;;34.40;31.50;;;;;;;10.09;100.00;101093.84;5051256;28;20501;-51
2022/11/02 06:14:06;;;;;;;32.73;31.03;;;;;;;10.09;100.00;101085.03;5051387;28;20435;-45
2022/11/02 06:16:33;;;;;;;32.73;30.70;;;;;;;10.09;100.00;101085.03;5051005;28;20525;-47
2022/11/02 06:19:01;;;;;;;31.40;29.60;;;;;;;10.11;100.00;101088.31;5036833;28;20590;-44
2022/11/02 06:21:29;;;;;;;33.27;30.93;;;;;;;10.13;100.00;101088.94;5031381;28;20437;-51
2022/11/02 06:23:57;;;;;;;32.43;30.73;;;;;;;10.13;100.00;101095.16;5031496;28;20490;-45
2022/11/02 06:26:25;;;;;;;32.47;30.60;;;;;;;10.16;100.00;101084.13;5031683;28;20440;-45
2022/11/02 06:28:52;;;;;;;32.60;30.57;;;;;;;10.17;100.00;101077.78;5044231;28;20459;-48
2022/11/02 06:31:21;;;;;;;33.63;31.43;;;;;;;10.22;100.00;101087.88;5050961;28;20427;-47
2022/11/02 06:33:49;;;;;;;33.60;31.90;;;;;;;10.25;100.00;101084.84;5051476;28;20442;-48
2022/11/02 06:36:17;;;;;;;33.80;31.57;;;;;;;10.27;100.00;101083.66;5051234;28;20520;-48
2022/11/02 06:38:44;;;;;;;33.57;31.57;;;;;;;10.29;100.00;101086.97;5038820;28;20522;-47
2022/11/02 06:41:12;;;;;;;33.93;31.33;;;;;;;10.33;100.00;101080.25;5031124;28;20772;-51
2022/11/02 06:43:40;;;;;;;34.17;31.87;;;;;;;10.38;100.00;101079.69;5030951;28;20498;-48
2022/11/02 06:46:07;;;;;;;33.93;31.80;;;;;;;10.43;100.00;101082.59;5031207;28;20833;-49
2022/11/02 06:48:36;;;;;;;33.83;31.90;;;;;;;10.46;100.00;101099.06;5041130;28;21004;-45
2022/11/02 06:51:05;;;;;;;35.73;33.30;;;;;;;10.50;100.00;101100.34;5052411;28;20911;-46
2022/11/02 06:53:33;;;;;;;33.90;32.07;;;;;;;10.54;100.00;101098.13;5054787;28;20484;-47
2022/11/02 06:56:00;;;;;;;34.77;32.47;;;;;;;10.56;100.00;101104.09;5054616;28;21041;-48
2022/11/02 06:58:29;;;;;;;32.77;31.17;;;;;;;10.61;100.00;101106.19;5044482;28;20541;-47
2022/11/02 07:00:58;;;;;;;34.80;32.53;;;;;;;10.68;100.00;101104.44;5034857;28;20436;-47
2022/11/02 07:03:26;;;;;;;33.83;31.80;;;;;;;10.70;100.00;101099.72;5034608;28;20476;-50
2022/11/02 07:05:55;;;;;;;33.43;30.90;;;;;;;10.76;100.00;101110.47;5034774;28;20481;-49
2022/11/02 07:08:23;;;;;;;32.50;30.77;;;;;;;10.80;100.00;101102.94;5042925;28;20467;-46
2022/11/02 07:10:51;;;;;;;33.43;31.47;;;;;;;10.88;100.00;101105.47;5054515;28;20477;-46
2022/11/02 07:13:18;;;;;;;33.67;32.07;;;;;;;10.95;100.00;101106.38;5054678;28;20435;-45
2022/11/02 07:15:52;;;;;;;33.13;31.20;;;;;;;11.02;100.00;101112.63;5054464;28;20560;-54
2022/11/02 07:18:19;;;;;;;33.27;31.30;;;;;;;11.12;100.00;101107.75;5045480;28;20464;-48
2022/11/02 07:20:47;;;;;;;36.30;33.20;;;;;;;11.25;100.00;101115.06;5029551;28;20674;-47
2022/11/02 07:23:16;;;;;;;33.67;31.10;;;;;;;11.32;100.00;101103.41;5042552;28;20432;-45
2022/11/02 07:25:43;;;;;;;33.67;31.30;;;;;;;11.40;100.00;101111.31;5034394;28;20498;-48
2022/11/02 07:28:11;;;;;;;33.17;31.00;;;;;;;11.48;100.00;101123.69;5033967;28;20467;-47
2022/11/02 07:30:38;;;;;;;33.20;31.60;;;;;;;11.51;100.00;101121.47;5034197;28;20440;-46
2022/11/02 07:33:06;;;;;;;33.27;31.10;;;;;;;11.51;100.00;101118.78;5034036;28;21019;-48
2022/11/02 07:35:34;;;;;;;32.43;30.70;;;;;;;11.55;100.00;101114.72;5034100;28;20483;-46
2022/11/02 07:38:03;;;;;;;32.90;30.90;;;;;;;11.57;100.00;101114.53;5033297;28;20546;-48
2022/11/02 07:40:34;;;;;;;33.53;31.80;;;;;;;11.68;100.00;101122.81;5053842;28;20485;-45
2022/11/02 07:43:02;;;;;;;32.47;30.63;;;;;;;11.79;100.00;101121.50;5054103;28;20427;-44
2022/11/02 07:45:31;;;;;;;31.33;29.70;;;;;;;11.94;100.00;101124.06;5053836;28;20431;-48
2022/11/02 07:47:58;;;;;;;31.57;29.90;;;;;;;12.05;100.00;101127.03;5053187;28;20524;-46
2022/11/02 07:50:27;;;;;;;31.20;29.60;;;;;;;12.15;100.00;101116.81;5053530;28;20431;-47
2022/11/02 07:52:56;;;;;;;30.80;28.60;;;;;;;12.34;100.00;101117.91;5053744;28;20513;-47
2022/11/02 07:55:25;;;;;;;30.93;29.10;;;;;;;12.46;100.00;101102.94;5053606;28;20924;-48
2022/11/02 07:57:56;;;;;;;28.57;27.13;;;;;;;12.53;100.00;101116.34;5053082;28;20883;-46
2022/11/02 08:00:24;;;;;;;26.90;25.60;;;;;;;12.53;100.00;101113.66;5053748;28;20442;-45
2022/11/02 08:02:55;;;;;;;27.90;26.30;;;;;;;12.55;100.00;101117.78;5052617;28;20712;-45
2022/11/02 08:05:23;;;;;;;27.17;25.17;;;;;;;12.53;100.00;101105.66;5053624;28;20431;-45
2022/11/02 08:07:56;;;;;;;25.60;24.50;;;;;;;12.60;100.00;101120.69;5053049;28;20466;-51
2022/11/02 08:10:24;;;;;;;24.17;23.17;;;;;;;12.66;100.00;101111.84;5053446;28;20469;-46
2022/11/02 08:12:52;;;;;;;23.93;22.63;;;;;;;12.62;100.00;101115.97;5053398;28;20847;-47
2022/11/02 08:15:21;;;;;;;23.53;22.20;;;;;;;12.61;100.00;101117.00;5053309;28;20427;-45
2022/11/02 08:17:59;;;;;;;23.83;22.53;;;;;;;12.56;100.00;101106.06;5052809;28;20467;-48
2022/11/02 08:20:27;;;;;;;23.47;21.40;;;;;;;12.51;100.00;101119.22;5048756;28;20427;-46
2022/11/02 08:22:55;;;;;;;22.17;21.00;;;;;;;12.58;100.00;101113.88;5046572;28;20860;-49
2022/11/02 08:25:23;;;;;;;21.50;20.30;;;;;;;12.55;100.00;101123.13;5033280;28;20775;-47
2022/11/02 08:27:50;;;;;;;20.87;19.80;;;;;;;12.51;100.00;101110.38;5032708;28;20464;-48
2022/11/02 08:30:18;;;;;;;21.10;20.10;;;;;;;12.49;100.00;101107.88;5033300;28;20436;-45
2022/11/02 08:32:47;;;;;;;23.07;21.37;;;;;;;12.45;100.00;101111.19;5033353;28;20471;-50
2022/11/02 08:35:22;;;;;;;22.60;20.73;;;;;;;12.43;100.00;101118.56;5032988;28;20906;-45
2022/11/02 08:37:53;;;;;;;22.80;21.17;;;;;;;12.32;100.00;101127.16;5032202;28;20464;-46
2022/11/02 08:40:21;;;;;;;21.63;20.50;;;;;;;12.25;100.00;101140.47;5032836;28;20455;-45
2022/11/02 08:42:48;;;;;;;20.97;20.00;;;;;;;12.17;100.00;101127.28;5032742;28;20517;-45
2022/11/02 08:45:16;;;;;;;22.17;21.20;;;;;;;12.07;100.00;101138.31;5033107;28;20482;-47
2022/11/02 08:47:44;;;;;;;22.57;21.37;;;;;;;12.03;100.00;101139.75;5032342;28;20456;-46
2022/11/02 08:50:13;;;;;;;21.30;20.23;;;;;;;12.00;100.00;101136.66;5032928;28;20506;-50
2022/11/02 08:52:41;;;;;;;21.90;20.60;;;;;;;12.10;100.00;101150.47;5032504;28;20447;-44
2022/11/02 08:55:09;;;;;;;23.23;21.40;;;;;;;12.11;100.00;101136.94;5032912;28;20424;-45
2022/11/02 08:57:44;;;;;;;23.07;21.87;;;;;;;12.08;100.00;101145.34;5031985;28;21043;-48
2022/11/02 09:00:13;;;;;;;23.23;22.00;;;;;;;12.13;100.00;101148.25;5032592;28;20781;-46
2022/11/02 09:02:41;;;;;;;23.17;21.87;;;;;;;12.13;100.00;101153.59;5032817;28;20444;-48
2022/11/02 09:05:09;;;;;;;22.93;21.93;;;;;;;12.16;100.00;101139.00;5032444;28;20467;-47
2022/11/02 09:07:38;;;;;;;24.30;22.80;;;;;;;12.25;100.00;101147.66;5032028;28;21031;-48
2022/11/02 09:10:07;;;;;;;23.80;22.60;;;;;;;12.26;100.00;101138.63;5032591;28;20785;-51
2022/11/02 09:12:34;;;;;;;24.23;22.73;;;;;;;12.19;100.00;101141.28;5032209;28;20482;-48
2022/11/02 09:15:02;;;;;;;25.17;23.57;;;;;;;12.20;100.00;101145.59;5032632;28;20436;-50
2022/11/02 09:17:29;;;;;;;24.20;22.67;;;;;;;12.28;100.00;101142.75;5031795;28;20479;-45
2022/11/02 09:19:57;;;;;;;26.57;24.20;;;;;;;12.32;100.00;101138.69;5032352;28;20432;-48
2022/11/02 09:22:25;;;;;;;24.63;23.37;;;;;;;12.44;100.00;101142.44;5040443;28;20436;-45
2022/11/02 09:24:54;;;;;;;24.60;23.10;;;;;;;12.54;100.00;101148.25;5032455;28;20486;-47
2022/11/02 09:27:21;;;;;;;24.60;23.10;;;;;;;12.61;100.00;101153.63;5031937;28;20452;-45
2022/11/02 09:29:49;;;;;;;26.90;24.30;;;;;;;12.63;100.00;101151.59;5032088;28;20432;-49
2022/11/02 09:32:16;;;;;;;24.43;22.73;;;;;;;12.64;100.00;101158.56;5031854;28;20502;-51
2022/11/02 09:34:46;;;;;;;25.10;23.70;;;;;;;12.60;100.00;101136.72;5032467;28;20437;-45
2022/11/02 09:37:13;;;;;;;24.40;23.03;;;;;;;12.57;100.00;101161.22;5031996;28;20476;-48
2022/11/02 09:39:41;;;;;;;25.20;22.87;;;;;;;12.56;100.00;101167.59;5031486;28;20533;-46
2022/11/02 09:42:17;;;;;;;23.90;22.23;;;;;;;12.59;100.00;101153.00;5031781;28;20440;-48
2022/11/02 09:44:50;;;;;;;25.27;23.40;;;;;;;12.65;100.00;101158.38;5031810;28;20902;-45
2022/11/02 09:47:20;;;;;;;24.77;22.87;;;;;;;12.83;100.00;101160.50;5031562;28;20514;-49
2022/11/02 09:50:16;;;;;;;26.00;24.23;;;;;;;13.04;100.00;101162.22;5031606;28;20487;-48
2022/11/02 09:52:47;;;;;;;24.87;22.93;;;;;;;13.00;100.00;101155.59;5031751;28;20493;-44
2022/11/02 09:55:21;;;;;;;25.10;23.83;;;;;;;13.10;100.00;101150.72;5031612;28;20482;-45
2022/11/02 09:57:56;;;;;;;24.70;23.10;;;;;;;13.11;100.00;101150.50;5031418;28;20877;-44
2022/11/02 10:00:23;;;;;;;24.53;22.87;;;;;;;13.02;100.00;101161.59;5031755;28;20428;-47
2022/11/02 10:02:57;;;;;;;24.47;22.37;;;;;;;12.69;100.00;101175.66;5031643;28;20444;-47
2022/11/02 10:05:38;;;;;;;21.83;20.63;;;;;;;12.35;100.00;101172.22;5031659;28;20882;-45
2022/11/02 10:08:22;;;;;;;24.07;22.53;;;;;;;12.14;100.00;101186.50;5031014;28;20464;-43
2022/11/02 10:10:56;;;;;;;22.97;22.03;;;;;;;12.01;100.00;101179.22;5031723;28;20849;-46
2022/11/02 10:13:34;;;;;;;24.67;23.37;;;;;;;11.89;100.00;101166.56;5031568;28;20909;-48
2022/11/02 10:16:06;;;;;;;27.57;25.50;;;;;;;11.83;100.00;101170.84;5031547;28;20428;-50
2022/11/02 10:18:36;;;;;;;29.33;27.57;;;;;;;11.78;100.00;101197.34;5030990;28;20475;-46
2022/11/02 10:21:08;;;;;;;29.77;28.03;;;;;;;11.58;100.00;101183.78;5031434;28;20514;-51
2022/11/02 10:23:40;;;;;;;28.27;26.20;;;;;;;11.38;100.00;101185.44;5035734;28;20481;-44
2022/11/02 10:26:16;;;;;;;26.83;25.63;;;;;;;11.17;100.00;101220.13;5052930;28;20458;-45
2022/11/02 10:28:49;;;;;;;27.30;25.93;;;;;;;10.98;100.00;101215.41;5055111;28;20528;-45
2022/11/02 10:31:24;;;;;;;26.97;25.80;;;;;;;10.91;100.00;101219.81;5055381;28;20431;-47
2022/11/02 10:33:53;;;;;;;27.40;26.20;;;;;;;10.91;100.00;101223.31;5055381;28;20438;-47
2022/11/02 10:36:39;;;;;;;28.13;26.70;;;;;;;10.96;100.00;101218.25;5055184;28;20428;-45
2022/11/02 10:39:20;;;;;;;27.60;26.40;;;;;;;11.06;100.00;101225.97;5054593;28;20937;-43
2022/11/02 10:42:15;;;;;;;29.20;27.60;;;;;;;11.22;100.00;101224.91;5055425;28;20856;-45
2022/11/02 10:44:56;;;;;;;30.63;28.90;;;;;;;11.29;100.00;101215.94;5055023;28;20473;-46
2022/11/02 10:47:27;;;;;;;30.10;28.70;;;;;;;11.34;100.00;101218.06;5054140;28;20467;-45
2022/11/02 10:50:11;;;;;;;32.83;30.63;;;;;;;11.38;100.00;101222.81;5055168;28;20848;-45
2022/11/02 10:52:41;;;;;;;34.50;31.87;;;;;;;11.43;100.00;101236.44;5054894;28;20431;-45
2022/11/02 10:55:19;;;;;;;34.27;31.87;;;;;;;11.41;100.00;101249.13;5054884;28;20924;-46
2022/11/02 10:57:48;;;;;;;31.43;29.70;;;;;;;11.22;100.00;101248.94;5054096;28;20462;-49
2022/11/02 11:00:26;;;;;;;30.77;29.37;;;;;;;11.21;100.00;101263.28;5055003;28;20504;-46
2022/11/02 11:03:04;;;;;;;33.00;31.03;;;;;;;11.12;100.00;101270.59;5054756;28;20534;-45
2022/11/02 11:05:33;;;;;;;31.37;29.70;;;;;;;10.97;100.00;101285.78;5054616;28;20508;-45
2022/11/02 11:08:00;;;;;;;31.97;30.03;;;;;;;10.86;100.00;101304.94;5054311;28;20513;-48
2022/11/02 11:10:35;;;;;;;31.97;30.37;;;;;;;10.83;100.00;101318.66;5054819;28;20465;-46
2022/11/02 11:13:05;;;;;;;31.10;29.50;;;;;;;10.70;100.00;101307.78;5054629;28;20443;-49
2022/11/02 11:15:35;;;;;;;29.77;28.47;;;;;;;10.52;100.00;101298.31;5054696;28;20480;-45
2022/11/02 11:18:21;;;;;;;33.30;31.10;;;;;;;10.45;100.00;101309.91;5053885;28;20509;-45
2022/11/02 11:21:09;;;;;;;31.93;29.93;;;;;;;10.38;100.00;101317.78;5040676;28;20463;-46
2022/11/02 11:23:37;;;;;;;32.53;30.53;;;;;;;10.36;100.00;101319.00;5054269;28;20443;-50
2022/11/02 11:26:08;;;;;;;32.27;30.13;;;;;;;10.35;100.00;101315.50;5054153;28;20435;-45
2022/11/02 11:28:39;;;;;;;33.10;31.40;;;;;;;10.35;100.00;101314.66;5053841;28;20463;-48
2022/11/02 11:31:14;;;;;;;32.70;30.73;;;;;;;10.33;100.00;101322.84;5054195;28;20411;-47
2022/11/02 11:33:48;;;;;;;35.17;32.03;;;;;;;10.35;100.00;101327.97;5054320;28;20442;-47